createdAt,value
2019-05-02T00:02:10.541Z,9.80
2019-05-02T00:04:40.941Z,9.80
2019-05-02T00:07:14.464Z,9.80
2019-05-02T00:09:48.598Z,9.80
2019-05-02T00:12:18.538Z,9.70
2019-05-02T00:14:49.238Z,9.70
2019-05-02T00:17:25.591Z,9.70
2019-05-02T00:19:53.079Z,9.70
2019-05-02T00:22:23.504Z,9.80
2019-05-02T00:24:53.950Z,9.70
2019-05-02T00:27:24.305Z,9.80
2019-05-02T00:29:58.837Z,9.80
2019-05-02T00:32:26.663Z,9.80
2019-05-02T00:34:57.185Z,9.80
2019-05-02T00:37:27.568Z,9.80
2019-05-02T00:39:57.893Z,9.80
2019-05-02T00:42:28.243Z,9.80
2019-05-02T00:44:58.549Z,9.80
2019-05-02T00:47:42.181Z,9.90
2019-05-02T00:50:13.318Z,9.90
2019-05-02T00:52:43.749Z,9.80
2019-05-02T00:55:14.768Z,9.70
2019-05-02T00:57:45.090Z,9.70
2019-05-02T01:00:18.358Z,9.60
2019-05-02T01:03:01.923Z,9.60
2019-05-02T01:05:33.694Z,9.50
2019-05-02T01:08:04.490Z,9.50
2019-05-02T01:10:34.872Z,9.40
2019-05-02T01:13:05.210Z,9.40
2019-05-02T01:15:39.186Z,9.30
2019-05-02T01:18:07.966Z,9.20
2019-05-02T01:20:38.404Z,9.20
2019-05-02T01:23:08.783Z,9.10
2019-05-02T01:25:39.178Z,9.00
2019-05-02T01:28:21.538Z,9.00
2019-05-02T01:31:18.478Z,9.00
2019-05-02T01:33:54.152Z,8.90
2019-05-02T01:36:29.985Z,8.90
2019-05-02T01:39:03.015Z,8.90
2019-05-02T01:41:32.340Z,8.80
2019-05-02T01:44:02.747Z,8.80
2019-05-02T01:46:33.058Z,8.80
2019-05-02T01:49:03.441Z,8.80
2019-05-02T01:51:36.620Z,8.80
2019-05-02T01:54:10.142Z,8.70
2019-05-02T01:56:38.033Z,8.70
2019-05-02T01:59:08.351Z,8.70
2019-05-02T02:01:38.702Z,8.70
2019-05-02T02:04:09.051Z,8.70
2019-05-02T02:06:43.276Z,8.70
2019-05-02T02:09:11.514Z,8.70
2019-05-02T02:11:41.913Z,8.60
2019-05-02T02:14:13.627Z,8.60
2019-05-02T02:16:44.281Z,8.50
2019-05-02T02:19:20.283Z,8.50
2019-05-02T02:22:02.943Z,8.40
2019-05-02T02:24:38.462Z,8.40
2019-05-02T02:27:09.152Z,8.40
2019-05-02T02:29:44.063Z,8.40
2019-05-02T02:32:11.621Z,8.30
2019-05-02T02:34:41.909Z,8.30
2019-05-02T02:37:15.065Z,8.30
2019-05-02T02:39:48.586Z,8.20
2019-05-02T02:42:16.362Z,8.20
2019-05-02T02:44:53.193Z,8.10
2019-05-02T02:47:23.672Z,8.10
2019-05-02T02:49:55.699Z,8.10
2019-05-02T02:52:26.066Z,8.10
2019-05-02T02:54:56.383Z,8.10
2019-05-02T02:57:28.501Z,8.00
2019-05-02T03:00:06.861Z,8.00
2019-05-02T03:02:31.462Z,8.00
2019-05-02T03:05:01.886Z,8.00
2019-05-02T03:07:32.323Z,8.00
2019-05-02T03:10:06.083Z,7.90
2019-05-02T03:12:52.758Z,8.00
2019-05-02T03:15:28.077Z,8.00
2019-05-02T03:18:00.067Z,7.90
2019-05-02T03:20:40.143Z,8.00
2019-05-02T03:23:00.990Z,8.00
2019-05-02T03:25:50.113Z,8.00
2019-05-02T03:28:04.010Z,8.10
2019-05-02T03:30:37.454Z,8.10
2019-05-02T03:33:11.515Z,8.20
2019-05-02T03:35:48.024Z,8.20
2019-05-02T03:38:10.626Z,8.20
2019-05-02T03:40:41.378Z,8.30
2019-05-02T03:43:11.781Z,8.20
2019-05-02T03:45:43.260Z,8.20
2019-05-02T03:48:18.373Z,8.20
2019-05-02T03:50:46.241Z,8.20
2019-05-02T03:53:17.778Z,8.10
2019-05-02T03:55:49.213Z,8.10
2019-05-02T03:58:19.911Z,8.10
2019-05-02T04:01:00.915Z,8.00
2019-05-02T04:03:23.029Z,8.00
2019-05-02T04:05:54.070Z,8.00
2019-05-02T04:08:25.120Z,8.00
2019-05-02T04:11:25.532Z,7.90
2019-05-02T04:13:59.698Z,7.90
2019-05-02T04:16:31.527Z,7.90
2019-05-02T04:19:03.689Z,7.90
2019-05-02T04:21:35.415Z,7.90
2019-05-02T04:24:13.454Z,7.90
2019-05-02T04:26:52.684Z,7.90
2019-05-02T04:29:12.295Z,7.90
2019-05-02T04:31:42.663Z,7.90
2019-05-02T04:34:15.808Z,8.00
2019-05-02T04:36:46.520Z,7.90
2019-05-02T04:39:21.190Z,8.00
2019-05-02T04:41:49.301Z,8.00
2019-05-02T04:44:19.770Z,8.00
2019-05-02T04:46:50.121Z,8.00
2019-05-02T04:49:29.731Z,8.00
2019-05-02T04:52:01.546Z,8.10
2019-05-02T04:54:29.083Z,8.10
2019-05-02T04:56:59.013Z,8.10
2019-05-02T04:59:32.968Z,8.10
2019-05-02T05:02:02.916Z,8.20
2019-05-02T05:04:42.460Z,8.20
2019-05-02T05:07:09.272Z,8.30
2019-05-02T05:09:50.031Z,8.30
2019-05-02T05:12:17.636Z,8.40
2019-05-02T05:14:48.316Z,8.50
2019-05-02T05:17:19.988Z,8.60
2019-05-02T05:19:51.987Z,8.70
2019-05-02T05:22:22.713Z,8.70
2019-05-02T05:24:59.939Z,8.70
2019-05-02T05:27:31.198Z,8.70
2019-05-02T05:30:08.381Z,8.80
2019-05-02T05:32:33.816Z,8.90
2019-05-02T05:35:08.961Z,8.90
2019-05-02T05:37:38.212Z,9.00
2019-05-02T05:40:08.859Z,9.00
2019-05-02T05:42:39.226Z,9.20
2019-05-02T05:45:13.758Z,9.20
2019-05-02T05:47:43.099Z,9.30
2019-05-02T05:50:14.247Z,9.40
2019-05-02T05:52:44.668Z,9.50
2019-05-02T05:55:20.519Z,9.60
2019-05-02T05:57:49.749Z,9.70
2019-05-02T06:00:23.026Z,9.80
2019-05-02T06:02:56.364Z,9.90
2019-05-02T06:05:23.654Z,9.90
2019-05-02T06:07:54.054Z,10.00
2019-05-02T06:10:24.407Z,10.00
2019-05-02T06:12:54.803Z,10.10
2019-05-02T06:15:25.120Z,10.10
2019-05-02T06:17:55.485Z,10.10
2019-05-02T06:20:30.535Z,10.10
2019-05-02T06:23:00.100Z,10.20
2019-05-02T06:25:34.262Z,10.20
2019-05-02T06:28:05.662Z,10.20
2019-05-02T06:30:34.226Z,10.20
2019-05-02T06:33:04.624Z,10.30
2019-05-02T06:35:35.572Z,10.30
2019-05-02T06:38:06.027Z,10.30
2019-05-02T06:40:39.282Z,10.40
2019-05-02T06:43:09.699Z,10.40
2019-05-02T06:45:40.549Z,10.30
2019-05-02T06:48:17.214Z,10.30
2019-05-02T06:50:42.964Z,10.30
2019-05-02T06:53:13.320Z,10.40
2019-05-02T06:55:43.677Z,10.40
2019-05-02T06:58:14.049Z,10.40
2019-05-02T07:00:56.646Z,10.40
2019-05-02T07:03:16.954Z,10.50
2019-05-02T07:05:49.032Z,10.60
2019-05-02T07:08:19.589Z,10.60
2019-05-02T07:10:49.998Z,10.70
2019-05-02T07:13:20.392Z,10.80
2019-05-02T07:16:24.028Z,10.80
2019-05-02T07:18:50.971Z,10.90
2019-05-02T07:21:23.613Z,10.80
2019-05-02T07:23:55.055Z,10.80
2019-05-02T07:26:25.775Z,10.90
2019-05-02T07:28:56.157Z,11.00
2019-05-02T07:31:26.469Z,11.00
2019-05-02T07:33:56.833Z,11.10
2019-05-02T07:36:31.206Z,11.10
2019-05-02T07:39:05.204Z,11.10
2019-05-02T07:41:31.340Z,11.20
2019-05-02T07:44:04.424Z,11.30
2019-05-02T07:46:34.138Z,11.30
2019-05-02T07:49:04.672Z,11.30
2019-05-02T07:51:35.019Z,11.40
2019-05-02T07:54:05.365Z,11.40
2019-05-02T07:56:35.739Z,11.40
2019-05-02T07:59:06.088Z,11.40
2019-05-02T08:01:36.428Z,11.50
2019-05-02T08:04:11.145Z,11.50
2019-05-02T08:06:40.122Z,11.50
2019-05-02T08:09:11.761Z,11.60
2019-05-02T08:11:42.124Z,11.60
2019-05-02T08:14:12.460Z,11.60
2019-05-02T08:16:42.881Z,11.60
2019-05-02T08:19:13.219Z,11.60
2019-05-02T08:21:43.632Z,11.60
2019-05-02T08:24:14.036Z,11.60
2019-05-02T08:27:03.305Z,11.60
2019-05-02T08:29:34.411Z,11.60
2019-05-02T08:32:04.736Z,11.60
2019-05-02T08:34:35.128Z,11.60
2019-05-02T08:37:05.621Z,11.70
2019-05-02T08:39:35.979Z,11.70
2019-05-02T08:42:06.800Z,11.70
2019-05-02T08:44:50.375Z,11.80
2019-05-02T08:47:18.630Z,11.80
2019-05-02T08:49:42.570Z,11.90
2019-05-02T08:52:13.166Z,12.00
2019-05-02T08:54:43.502Z,12.00
2019-05-02T08:57:13.868Z,12.00
2019-05-02T08:59:44.281Z,12.00
2019-05-02T09:02:14.693Z,12.10
2019-05-02T09:04:57.643Z,12.10
2019-05-02T09:07:17.264Z,12.20
2019-05-02T09:09:47.780Z,12.30
2019-05-02T09:12:20.058Z,12.30
2019-05-02T09:14:51.972Z,12.30
2019-05-02T09:17:35.094Z,12.30
2019-05-02T09:20:02.382Z,12.20
2019-05-02T09:22:26.410Z,12.20
2019-05-02T09:24:56.746Z,12.30
2019-05-02T09:27:27.165Z,12.40
2019-05-02T09:29:57.494Z,12.50
2019-05-02T09:32:27.823Z,12.60
2019-05-02T09:35:02.257Z,12.60
2019-05-02T09:37:32.138Z,12.70
2019-05-02T09:40:06.819Z,12.80
2019-05-02T09:42:35.017Z,12.90
2019-05-02T09:45:06.080Z,12.90
2019-05-02T09:47:52.894Z,13.00
2019-05-02T09:50:15.719Z,12.90
2019-05-02T09:52:47.124Z,12.90
2019-05-02T09:55:19.009Z,12.80
2019-05-02T09:57:49.360Z,12.70
2019-05-02T10:00:43.725Z,12.60
2019-05-02T10:03:14.486Z,12.60
2019-05-02T10:05:44.827Z,12.50
2019-05-02T10:08:15.253Z,12.40
2019-05-02T10:10:46.232Z,12.30
2019-05-02T10:13:16.918Z,12.20
2019-05-02T10:15:47.859Z,12.10
2019-05-02T10:18:19.689Z,12.10
2019-05-02T10:20:52.256Z,12.00
2019-05-02T10:23:23.442Z,12.00
2019-05-02T10:25:54.312Z,12.00
2019-05-02T10:28:24.769Z,12.10
2019-05-02T10:30:56.826Z,12.10
2019-05-02T10:33:27.927Z,12.20
2019-05-02T10:35:59.288Z,12.30
2019-05-02T10:38:29.593Z,12.50
2019-05-02T10:41:02.623Z,12.70
2019-05-02T10:43:32.892Z,12.90
2019-05-02T10:46:09.587Z,12.90
2019-05-02T10:48:45.471Z,13.00
2019-05-02T10:51:41.947Z,13.10
2019-05-02T10:54:08.964Z,13.10
2019-05-02T10:56:39.295Z,13.10
2019-05-02T10:59:11.644Z,13.10
2019-05-02T11:02:02.529Z,12.90
2019-05-02T11:04:35.023Z,12.70
2019-05-02T11:07:05.488Z,12.30
2019-05-02T11:09:35.868Z,12.10
2019-05-02T11:12:07.825Z,12.10
2019-05-02T11:14:59.886Z,12.10
2019-05-02T11:17:37.607Z,12.10
2019-05-02T11:20:12.188Z,12.30
2019-05-02T11:22:42.827Z,12.30
2019-05-02T11:25:13.193Z,12.40
2019-05-02T11:27:43.560Z,12.40
2019-05-02T11:30:16.869Z,12.40
2019-05-02T11:32:46.261Z,12.30
2019-05-02T11:35:16.595Z,12.40
2019-05-02T11:37:46.917Z,12.40
2019-05-02T11:40:17.242Z,12.40
2019-05-02T11:42:47.865Z,12.40
2019-05-02T11:45:18.197Z,12.50
2019-05-02T11:47:48.509Z,12.50
2019-05-02T11:50:18.895Z,12.50
2019-05-02T11:52:49.210Z,12.40
2019-05-02T11:55:24.589Z,12.40
2019-05-02T11:57:52.397Z,12.40
2019-05-02T12:00:22.716Z,12.40
2019-05-02T12:03:28.273Z,12.50
2019-05-02T12:05:59.383Z,12.50
2019-05-02T12:08:31.807Z,12.60
2019-05-02T12:11:03.760Z,12.70
2019-05-02T12:13:33.874Z,12.70
2019-05-02T12:16:08.585Z,12.70
2019-05-02T12:18:38.359Z,12.70
2019-05-02T12:21:08.843Z,12.70
2019-05-02T12:23:39.225Z,12.70
2019-05-02T12:26:09.630Z,12.70
2019-05-02T12:28:40.038Z,12.70
2019-05-02T12:31:32.111Z,12.70
2019-05-02T12:34:04.267Z,12.60
2019-05-02T12:36:34.637Z,12.60
2019-05-02T12:39:06.627Z,12.60
2019-05-02T12:41:37.052Z,12.60
2019-05-02T12:44:07.533Z,12.50
2019-05-02T12:46:37.880Z,12.40
2019-05-02T12:49:08.197Z,12.30
2019-05-02T12:51:38.557Z,12.30
2019-05-02T12:54:08.902Z,12.30
2019-05-02T12:56:39.254Z,12.30
2019-05-02T12:59:11.689Z,12.40
2019-05-02T13:01:42.253Z,12.40
2019-05-02T13:04:14.242Z,12.30
2019-05-02T13:06:44.755Z,12.20
2019-05-02T13:09:15.338Z,12.20
2019-05-02T13:12:05.694Z,12.20
2019-05-02T13:14:36.006Z,12.20
2019-05-02T13:17:06.443Z,12.30
2019-05-02T13:19:40.909Z,12.40
2019-05-02T13:22:24.518Z,12.60
2019-05-02T13:24:57.926Z,12.80
2019-05-02T13:27:32.202Z,13.00
2019-05-02T13:30:03.223Z,13.10
2019-05-02T13:32:42.674Z,13.30
2019-05-02T13:35:26.931Z,13.40
2019-05-02T13:38:02.725Z,13.50
2019-05-02T13:40:41.671Z,13.60
2019-05-02T13:43:12.533Z,13.80
2019-05-02T13:46:05.458Z,13.80
2019-05-02T13:48:35.898Z,13.80
2019-05-02T13:51:06.331Z,13.70
2019-05-02T13:53:38.714Z,13.60
2019-05-02T13:56:46.319Z,13.40
2019-05-02T13:59:17.151Z,13.40
2019-05-02T14:01:49.404Z,13.30
2019-05-02T14:04:19.799Z,13.30
2019-05-02T14:06:50.128Z,13.30
2019-05-02T14:09:32.499Z,13.10
2019-05-02T14:12:22.870Z,13.00
2019-05-02T14:14:53.262Z,13.00
2019-05-02T14:17:23.759Z,13.00
2019-05-02T14:20:07.118Z,13.00
2019-05-02T14:22:26.177Z,13.10
2019-05-02T14:24:56.498Z,13.20
2019-05-02T14:27:26.835Z,13.30
2019-05-02T14:29:57.213Z,13.20
2019-05-02T14:32:27.559Z,13.10
2019-05-02T14:35:03.947Z,13.10
2019-05-02T14:37:34.290Z,13.10
2019-05-02T14:40:12.152Z,13.30
2019-05-02T14:42:42.528Z,13.30
2019-05-02T14:45:27.230Z,13.40
2019-05-02T14:47:44.926Z,13.50
2019-05-02T14:50:24.325Z,13.50
2019-05-02T14:52:47.784Z,13.40
2019-05-02T14:55:24.018Z,13.50
2019-05-02T14:57:52.489Z,13.80
2019-05-02T15:00:24.139Z,14.30
2019-05-02T15:02:54.467Z,14.80
2019-05-02T15:05:29.545Z,15.00
2019-05-02T15:08:01.538Z,15.00
2019-05-02T15:10:29.218Z,15.10
2019-05-02T15:13:01.141Z,14.80
2019-05-02T15:15:33.627Z,14.30
2019-05-02T15:18:07.919Z,14.10
2019-05-02T15:20:39.345Z,13.90
2019-05-02T15:23:14.338Z,13.80
2019-05-02T15:25:42.263Z,13.80
2019-05-02T15:28:19.410Z,13.70
2019-05-02T15:31:05.047Z,13.50
2019-05-02T15:33:39.640Z,13.40
2019-05-02T15:36:11.841Z,13.40
2019-05-02T15:38:47.342Z,13.40
2019-05-02T15:41:15.468Z,13.40
2019-05-02T15:43:49.244Z,13.40
2019-05-02T15:46:23.689Z,13.30
2019-05-02T15:48:51.971Z,13.40
2019-05-02T15:51:23.146Z,13.50
2019-05-02T15:54:07.634Z,13.70
2019-05-02T15:56:32.290Z,14.00
2019-05-02T15:59:06.197Z,14.20
2019-05-02T16:01:52.459Z,14.40
2019-05-02T16:04:25.898Z,14.50
2019-05-02T16:07:00.365Z,14.60
2019-05-02T16:09:28.363Z,14.50
2019-05-02T16:11:58.764Z,14.30
2019-05-02T16:14:32.434Z,14.20
2019-05-02T16:17:03.794Z,14.10
2019-05-02T16:19:36.758Z,14.00
2019-05-02T16:22:13.392Z,14.00
2019-05-02T16:24:48.130Z,13.90
2019-05-02T16:27:16.338Z,13.80
2019-05-02T16:29:47.900Z,13.80
2019-05-02T16:32:37.859Z,13.70
2019-05-02T16:35:13.547Z,13.50
2019-05-02T16:37:42.083Z,13.50
2019-05-02T16:40:13.195Z,13.50
2019-05-02T16:42:43.619Z,13.60
2019-05-02T16:45:14.667Z,13.60
2019-05-02T16:47:45.047Z,13.60
2019-05-02T16:50:18.577Z,13.50
2019-05-02T16:52:47.957Z,13.60
2019-05-02T16:55:21.130Z,13.70
2019-05-02T16:57:51.904Z,13.70
2019-05-02T17:00:25.794Z,13.80
2019-05-02T17:02:56.146Z,13.80
2019-05-02T17:05:26.562Z,13.70
2019-05-02T17:08:19.836Z,13.60
2019-05-02T17:10:56.885Z,13.70
2019-05-02T17:13:27.431Z,13.70
2019-05-02T17:15:58.971Z,13.70
2019-05-02T17:18:29.332Z,13.70
2019-05-02T17:21:01.584Z,13.60
2019-05-02T17:23:32.874Z,13.50
2019-05-02T17:26:03.626Z,13.50
2019-05-02T17:28:38.111Z,13.40
2019-05-02T17:31:10.838Z,13.40
2019-05-02T17:33:38.208Z,13.40
2019-05-02T17:36:08.557Z,13.40
2019-05-02T17:38:39.021Z,13.30
2019-05-02T17:41:11.715Z,13.40
2019-05-02T17:43:42.285Z,13.30
2019-05-02T17:46:18.278Z,13.20
2019-05-02T17:48:47.655Z,13.10
2019-05-02T17:51:35.751Z,12.90
2019-05-02T17:54:05.096Z,12.80
2019-05-02T17:56:35.441Z,12.80
2019-05-02T17:59:05.918Z,12.70
2019-05-02T18:01:41.669Z,12.70
2019-05-02T18:04:16.284Z,12.60
2019-05-02T18:06:46.924Z,12.60
2019-05-02T18:09:16.084Z,12.60
2019-05-02T18:11:46.430Z,12.60
2019-05-02T18:14:21.287Z,12.50
2019-05-02T18:16:51.946Z,12.50
2019-05-02T18:19:24.480Z,12.40
2019-05-02T18:21:53.164Z,12.40
2019-05-02T18:24:23.477Z,12.30
2019-05-02T18:26:53.794Z,12.30
2019-05-02T18:29:24.140Z,12.30
2019-05-02T18:31:54.468Z,12.30
2019-05-02T18:34:25.278Z,12.20
2019-05-02T18:36:57.424Z,12.20
2019-05-02T18:39:27.899Z,12.20
2019-05-02T18:41:58.313Z,12.10
2019-05-02T18:44:28.681Z,12.00
2019-05-02T18:46:59.016Z,11.90
2019-05-02T18:49:29.384Z,11.80
2019-05-02T18:52:01.626Z,11.80
2019-05-02T18:54:33.666Z,11.70
2019-05-02T18:57:03.900Z,11.70
2019-05-02T18:59:34.259Z,11.70
2019-05-02T19:02:04.594Z,11.70
2019-05-02T19:04:39.404Z,11.70
2019-05-02T19:07:12.083Z,11.60
2019-05-02T19:09:50.428Z,11.60
2019-05-02T19:12:19.449Z,11.60
2019-05-02T19:14:43.785Z,11.50
2019-05-02T19:17:14.116Z,11.50
2019-05-02T19:19:44.481Z,11.50
2019-05-02T19:22:17.085Z,11.50
2019-05-02T19:24:47.824Z,11.40
2019-05-02T19:27:37.110Z,11.40
2019-05-02T19:30:08.758Z,11.40
2019-05-02T19:32:39.062Z,11.40
2019-05-02T19:35:09.399Z,11.30
2019-05-02T19:37:44.593Z,11.40
2019-05-02T19:40:14.903Z,11.30
2019-05-02T19:42:45.328Z,11.30
2019-05-02T19:45:16.814Z,11.30
2019-05-02T19:47:49.037Z,11.30
2019-05-02T19:50:43.049Z,11.20
2019-05-02T19:53:15.219Z,11.10
2019-05-02T19:55:42.965Z,11.10
2019-05-02T19:58:13.632Z,11.00
2019-05-02T20:00:46.292Z,10.90
2019-05-02T20:03:21.657Z,10.80
2019-05-02T20:05:48.550Z,10.80
2019-05-02T20:08:21.189Z,10.70
2019-05-02T20:10:56.758Z,10.70
2019-05-02T20:13:28.272Z,10.60
2019-05-02T20:16:07.333Z,10.60
2019-05-02T20:18:45.587Z,10.50
2019-05-02T20:21:23.380Z,10.50
2019-05-02T20:23:47.034Z,10.40
2019-05-02T20:26:17.415Z,10.40
2019-05-02T20:28:47.733Z,10.40
2019-05-02T20:31:18.101Z,10.40
2019-05-02T20:33:48.447Z,10.40
2019-05-02T20:36:18.782Z,10.30
2019-05-02T20:38:49.138Z,10.30
2019-05-02T20:41:19.497Z,10.20
2019-05-02T20:43:51.544Z,10.20
2019-05-02T20:46:22.063Z,10.20
2019-05-02T20:48:52.724Z,10.10
2019-05-02T20:51:23.201Z,10.10
2019-05-02T20:53:53.574Z,10.10
2019-05-02T20:56:24.014Z,10.10
2019-05-02T20:58:54.371Z,10.10
2019-05-02T21:01:24.883Z,10.00
2019-05-02T21:03:55.239Z,10.00
2019-05-02T21:06:59.417Z,9.90
2019-05-02T21:09:52.469Z,9.90
2019-05-02T21:12:23.318Z,9.80
2019-05-02T21:14:53.705Z,9.80
2019-05-02T21:17:24.064Z,9.80
2019-05-02T21:19:54.458Z,9.80
2019-05-02T21:22:29.242Z,9.80
2019-05-02T21:24:59.619Z,9.80
2019-05-02T21:27:29.997Z,9.80
2019-05-02T21:30:00.351Z,9.80
2019-05-02T21:32:32.137Z,9.70
2019-05-02T21:35:02.982Z,9.70
2019-05-02T21:37:33.340Z,9.70
2019-05-02T21:40:03.826Z,9.70
2019-05-02T21:42:34.144Z,9.70
2019-05-02T21:45:04.562Z,9.60
2019-05-02T21:47:35.020Z,9.60
2019-05-02T21:50:12.346Z,9.60
2019-05-02T21:53:01.988Z,9.50
2019-05-02T21:55:45.281Z,9.50
2019-05-02T21:58:15.656Z,9.50
2019-05-02T22:00:55.779Z,9.40
2019-05-02T22:03:26.352Z,9.50
2019-05-02T22:05:56.740Z,9.50
2019-05-02T22:08:27.082Z,9.50
2019-05-02T22:10:57.437Z,9.60
2019-05-02T22:13:27.791Z,9.60
2019-05-02T22:15:58.799Z,9.70
2019-05-02T22:18:29.243Z,9.70
2019-05-02T22:21:01.577Z,9.70
2019-05-02T22:23:33.904Z,9.70
2019-05-02T22:26:03.836Z,9.70
2019-05-02T22:28:34.225Z,9.80
2019-05-02T22:31:04.608Z,9.80
2019-05-02T22:33:34.968Z,9.90
2019-05-02T22:36:05.441Z,9.90
2019-05-02T22:38:53.331Z,9.90
2019-05-02T22:41:23.680Z,9.90
2019-05-02T22:43:54.012Z,10.00
2019-05-02T22:46:43.901Z,9.90
2019-05-02T22:49:15.213Z,9.90
2019-05-02T22:51:46.347Z,9.90
2019-05-02T22:54:26.819Z,9.90
2019-05-02T22:56:48.797Z,9.90
2019-05-02T22:59:19.154Z,9.90
2019-05-02T23:01:49.500Z,9.90
2019-05-02T23:04:23.333Z,9.80
2019-05-02T23:06:52.947Z,9.80
2019-05-02T23:09:23.848Z,9.80
2019-05-02T23:11:54.190Z,9.80
2019-05-02T23:14:24.582Z,9.80
2019-05-02T23:16:54.962Z,9.80
2019-05-02T23:19:25.295Z,9.80
2019-05-02T23:21:55.847Z,9.80
2019-05-02T23:24:38.707Z,9.80
2019-05-02T23:27:17.827Z,9.80
2019-05-02T23:29:48.223Z,9.80
2019-05-02T23:32:18.563Z,9.70
2019-05-02T23:34:48.939Z,9.70
2019-05-02T23:37:19.348Z,9.70
2019-05-02T23:39:49.815Z,9.70
2019-05-02T23:42:21.871Z,9.70
2019-05-02T23:44:52.249Z,9.70
2019-05-02T23:47:22.616Z,9.70
2019-05-02T23:49:52.979Z,9.70
2019-05-02T23:52:23.369Z,9.70
2019-05-02T23:54:53.740Z,9.60
2019-05-02T23:57:24.089Z,9.60
2019-05-02T23:59:54.474Z,9.60
